sensor_id;sensor_type;location;lat;lon;timestamp;P1;durP1;ratioP1;P2;durP2;ratioP2
59681;SDS011;45548;39.530;-9.118;2022-09-09T07:45:03;2.65;;;1.75;;
59681;SDS011;45548;39.530;-9.118;2022-09-09T07:47:30;5.18;;;1.60;;
59681;SDS011;45548;39.530;-9.118;2022-09-09T07:49:56;5.25;;;1.60;;
59681;SDS011;45548;39.530;-9.118;2022-09-09T07:52:21;3.42;;;1.63;;
59681;SDS011;45548;39.530;-9.118;2022-09-09T07:54:47;3.45;;;1.70;;
59681;SDS011;45548;39.530;-9.118;2022-09-09T07:57:12;2.35;;;1.55;;
59681;SDS011;45548;39.530;-9.118;2022-09-09T07:59:38;5.03;;;1.90;;
59681;SDS011;45548;39.530;-9.118;2022-09-09T08:02:03;3.88;;;1.77;;
59681;SDS011;45548;39.530;-9.118;2022-09-09T08:04:29;2.80;;;1.35;;
59681;SDS011;45548;39.530;-9.118;2022-09-09T08:06:55;2.63;;;1.30;;
59681;SDS011;45548;39.530;-9.118;2022-09-09T08:09:23;3.92;;;1.48;;
59681;SDS011;45548;39.530;-9.118;2022-09-09T08:11:51;5.32;;;1.70;;
59681;SDS011;45548;39.530;-9.118;2022-09-09T08:14:17;5.15;;;1.50;;
59681;SDS011;45548;39.530;-9.118;2022-09-09T08:16:44;6.50;;;2.10;;
59681;SDS011;45548;39.530;-9.118;2022-09-09T08:19:12;3.58;;;1.85;;
59681;SDS011;45548;39.530;-9.118;2022-09-09T08:21:40;4.70;;;2.00;;
59681;SDS011;45548;39.530;-9.118;2022-09-09T08:24:07;5.38;;;1.42;;
59681;SDS011;45548;39.530;-9.118;2022-09-09T08:26:37;3.78;;;1.70;;
59681;SDS011;45548;39.530;-9.118;2022-09-09T08:29:05;4.43;;;1.50;;
59681;SDS011;45548;39.530;-9.118;2022-09-09T08:33:58;6.97;;;1.60;;
59681;SDS011;45548;39.530;-9.118;2022-09-09T08:36:25;4.68;;;1.63;;
59681;SDS011;45548;39.530;-9.118;2022-09-09T08:38:52;1.98;;;1.33;;
59681;SDS011;45548;39.530;-9.118;2022-09-09T08:44:14;1.75;;;1.00;;
59681;SDS011;45548;39.530;-9.118;2022-09-09T08:50:19;1.42;;;1.00;;
59681;SDS011;45548;39.530;-9.118;2022-09-09T08:55:35;3.55;;;1.40;;
59681;SDS011;45548;39.530;-9.118;2022-09-09T09:03:15;2.45;;;0.80;;
59681;SDS011;45548;39.530;-9.118;2022-09-09T09:05:48;2.50;;;1.05;;
59681;SDS011;45548;39.530;-9.118;2022-09-09T09:08:31;2.65;;;1.00;;
59681;SDS011;45548;39.530;-9.118;2022-09-09T09:11:00;8.38;;;1.45;;
59681;SDS011;45548;39.530;-9.118;2022-09-09T09:13:30;3.45;;;1.10;;
59681;SDS011;45548;39.530;-9.118;2022-09-09T09:19:19;1.10;;;0.90;;
59681;SDS011;45548;39.530;-9.118;2022-09-09T09:24:51;3.38;;;1.40;;
59681;SDS011;45548;39.530;-9.118;2022-09-09T09:27:28;3.95;;;1.42;;
59681;SDS011;45548;39.530;-9.118;2022-09-09T09:29:58;5.18;;;2.00;;
59681;SDS011;45548;39.530;-9.118;2022-09-09T09:32:26;4.93;;;1.52;;
59681;SDS011;45548;39.530;-9.118;2022-09-09T09:34:55;2.92;;;1.48;;
59681;SDS011;45548;39.530;-9.118;2022-09-09T09:37:30;4.55;;;1.70;;
59681;SDS011;45548;39.530;-9.118;2022-09-09T09:40:10;5.10;;;2.33;;
59681;SDS011;45548;39.530;-9.118;2022-09-09T09:42:37;5.07;;;2.08;;
59681;SDS011;45548;39.530;-9.118;2022-09-09T09:48:03;6.32;;;2.03;;
59681;SDS011;45548;39.530;-9.118;2022-09-09T09:50:30;6.20;;;1.77;;
59681;SDS011;45548;39.530;-9.118;2022-09-09T09:52:57;2.95;;;1.13;;
59681;SDS011;45548;39.530;-9.118;2022-09-09T09:55:29;4.13;;;1.15;;
59681;SDS011;45548;39.530;-9.118;2022-09-09T09:58:05;2.88;;;1.23;;
59681;SDS011;45548;39.530;-9.118;2022-09-09T10:00:32;6.07;;;1.45;;
59681;SDS011;45548;39.530;-9.118;2022-09-09T10:03:00;19.20;;;1.58;;
59681;SDS011;45548;39.530;-9.118;2022-09-09T10:05:26;3.83;;;1.45;;
59681;SDS011;45548;39.530;-9.118;2022-09-09T10:08:27;51.50;;;4.43;;
59681;SDS011;45548;39.530;-9.118;2022-09-09T10:10:52;5.93;;;1.70;;
59681;SDS011;45548;39.530;-9.118;2022-09-09T10:13:37;4.28;;;1.60;;
59681;SDS011;45548;39.530;-9.118;2022-09-09T10:16:40;2.63;;;1.23;;
59681;SDS011;45548;39.530;-9.118;2022-09-09T10:19:36;33.88;;;2.67;;
59681;SDS011;45548;39.530;-9.118;2022-09-09T10:22:04;2.63;;;1.17;;
59681;SDS011;45548;39.530;-9.118;2022-09-09T10:27:04;60.47;;;4.25;;
59681;SDS011;45548;39.530;-9.118;2022-09-09T10:35:44;3.30;;;0.98;;
59681;SDS011;45548;39.530;-9.118;2022-09-09T10:38:45;10.63;;;1.52;;
59681;SDS011;45548;39.530;-9.118;2022-09-09T10:41:18;1.95;;;1.30;;
59681;SDS011;45548;39.530;-9.118;2022-09-09T10:57:11;0.77;;;0.70;;
59681;SDS011;45548;39.530;-9.118;2022-09-09T10:59:43;0.75;;;0.75;;
59681;SDS011;45548;39.530;-9.118;2022-09-09T11:02:28;51.28;;;2.58;;
59681;SDS011;45548;39.530;-9.118;2022-09-09T11:12:58;4.55;;;1.77;;
59681;SDS011;45548;39.530;-9.118;2022-09-09T11:18:04;5.05;;;1.30;;
59681;SDS011;45548;39.530;-9.118;2022-09-09T11:20:31;1.33;;;0.90;;
59681;SDS011;45548;39.530;-9.118;2022-09-09T11:23:11;2.25;;;1.30;;
59681;SDS011;45548;39.530;-9.118;2022-09-09T11:25:40;1.02;;;0.80;;
59681;SDS011;45548;39.530;-9.118;2022-09-09T11:38:52;2.17;;;0.77;;
59681;SDS011;45548;39.530;-9.118;2022-09-09T11:41:22;0.83;;;0.60;;
59681;SDS011;45548;39.530;-9.118;2022-09-09T11:46:17;5.68;;;1.58;;
59681;SDS011;45548;39.530;-9.118;2022-09-09T11:49:02;2.47;;;0.90;;
59681;SDS011;45548;39.530;-9.118;2022-09-09T11:51:31;26.20;;;2.67;;
59681;SDS011;45548;39.530;-9.118;2022-09-09T11:54:02;19.73;;;1.38;;
59681;SDS011;45548;39.530;-9.118;2022-09-09T11:56:47;1.38;;;1.10;;
59681;SDS011;45548;39.530;-9.118;2022-09-09T11:59:20;35.42;;;2.25;;
59681;SDS011;45548;39.530;-9.118;2022-09-09T12:01:55;1.17;;;0.80;;
59681;SDS011;45548;39.530;-9.118;2022-09-09T12:06:50;1.15;;;0.70;;
59681;SDS011;45548;39.530;-9.118;2022-09-09T12:17:47;9.30;;;1.23;;
59681;SDS011;45548;39.530;-9.118;2022-09-09T12:20:19;3.78;;;1.75;;
59681;SDS011;45548;39.530;-9.118;2022-09-09T12:28:04;9.50;;;4.70;;
59681;SDS011;45548;39.530;-9.118;2022-09-09T12:33:23;40.00;;;5.63;;
59681;SDS011;45548;39.530;-9.118;2022-09-09T12:35:51;9.32;;;4.78;;
59681;SDS011;45548;39.530;-9.118;2022-09-09T12:40:58;8.15;;;3.47;;
59681;SDS011;45548;39.530;-9.118;2022-09-09T12:43:27;13.27;;;4.28;;
59681;SDS011;45548;39.530;-9.118;2022-09-09T12:45:57;11.65;;;5.22;;
59681;SDS011;45548;39.530;-9.118;2022-09-09T12:48:34;7.28;;;4.18;;
59681;SDS011;45548;39.530;-9.118;2022-09-09T12:51:06;178.20;;;12.13;;
59681;SDS011;45548;39.530;-9.118;2022-09-09T12:53:43;8.25;;;3.30;;
59681;SDS011;45548;39.530;-9.118;2022-09-09T12:56:17;37.22;;;4.53;;
59681;SDS011;45548;39.530;-9.118;2022-09-09T12:58:46;3.83;;;2.47;;
59681;SDS011;45548;39.530;-9.118;2022-09-09T13:01:23;3.38;;;1.80;;
59681;SDS011;45548;39.530;-9.118;2022-09-09T13:03:58;3.90;;;2.35;;
59681;SDS011;45548;39.530;-9.118;2022-09-09T13:06:25;5.97;;;2.53;;
59681;SDS011;45548;39.530;-9.118;2022-09-09T13:08:53;44.72;;;3.28;;
59681;SDS011;45548;39.530;-9.118;2022-09-09T13:11:21;2.50;;;1.00;;
59681;SDS011;45548;39.530;-9.118;2022-09-09T13:13:54;2.70;;;1.20;;
59681;SDS011;45548;39.530;-9.118;2022-09-09T13:16:23;4.78;;;1.85;;
59681;SDS011;45548;39.530;-9.118;2022-09-09T13:18:55;30.85;;;2.33;;
59681;SDS011;45548;39.530;-9.118;2022-09-09T13:21:30;24.23;;;2.53;;
59681;SDS011;45548;39.530;-9.118;2022-09-09T13:23:57;7.00;;;2.40;;
59681;SDS011;45548;39.530;-9.118;2022-09-09T13:26:28;2.07;;;1.40;;
59681;SDS011;45548;39.530;-9.118;2022-09-09T13:28:55;1.95;;;1.08;;
59681;SDS011;45548;39.530;-9.118;2022-09-09T13:31:33;6.93;;;1.50;;
59681;SDS011;45548;39.530;-9.118;2022-09-09T13:34:14;1.10;;;1.00;;
59681;SDS011;45548;39.530;-9.118;2022-09-09T13:36:52;3.00;;;1.30;;
59681;SDS011;45548;39.530;-9.118;2022-09-09T13:39:23;6.38;;;1.92;;
59681;SDS011;45548;39.530;-9.118;2022-09-09T13:41:49;26.17;;;2.67;;
59681;SDS011;45548;39.530;-9.118;2022-09-09T13:44:22;59.60;;;3.15;;
59681;SDS011;45548;39.530;-9.118;2022-09-09T13:49:29;35.58;;;2.65;;
59681;SDS011;45548;39.530;-9.118;2022-09-09T13:52:05;12.98;;;2.28;;
59681;SDS011;45548;39.530;-9.118;2022-09-09T13:54:39;19.40;;;2.08;;
59681;SDS011;45548;39.530;-9.118;2022-09-09T13:57:11;7.22;;;1.85;;
59681;SDS011;45548;39.530;-9.118;2022-09-09T13:59:40;16.30;;;1.63;;
59681;SDS011;45548;39.530;-9.118;2022-09-09T14:02:06;28.52;;;3.60;;
59681;SDS011;45548;39.530;-9.118;2022-09-09T14:04:32;87.13;;;4.93;;
59681;SDS011;45548;39.530;-9.118;2022-09-09T14:07:00;4.25;;;1.30;;
59681;SDS011;45548;39.530;-9.118;2022-09-09T14:09:26;89.90;;;5.03;;
59681;SDS011;45548;39.530;-9.118;2022-09-09T14:11:51;20.33;;;2.58;;
59681;SDS011;45548;39.530;-9.118;2022-09-09T14:14:17;28.08;;;2.58;;
59681;SDS011;45548;39.530;-9.118;2022-09-09T14:16:42;3.00;;;1.58;;
59681;SDS011;45548;39.530;-9.118;2022-09-09T14:19:08;33.30;;;3.55;;
59681;SDS011;45548;39.530;-9.118;2022-09-09T14:21:34;2.70;;;1.33;;
59681;SDS011;45548;39.530;-9.118;2022-09-09T14:24:00;8.40;;;1.75;;
59681;SDS011;45548;39.530;-9.118;2022-09-09T14:26:26;2.83;;;1.17;;
59681;SDS011;45548;39.530;-9.118;2022-09-09T14:28:53;22.63;;;3.05;;
59681;SDS011;45548;39.530;-9.118;2022-09-09T14:31:19;4.75;;;1.70;;
59681;SDS011;45548;39.530;-9.118;2022-09-09T14:33:46;47.78;;;9.57;;
59681;SDS011;45548;39.530;-9.118;2022-09-09T14:36:11;6.45;;;2.05;;
59681;SDS011;45548;39.530;-9.118;2022-09-09T14:38:38;3.85;;;1.42;;
59681;SDS011;45548;39.530;-9.118;2022-09-09T14:41:05;3.05;;;1.38;;
59681;SDS011;45548;39.530;-9.118;2022-09-09T14:43:31;19.10;;;2.50;;
59681;SDS011;45548;39.530;-9.118;2022-09-09T14:46:06;8.93;;;1.60;;
59681;SDS011;45548;39.530;-9.118;2022-09-09T14:48:39;37.83;;;3.03;;
59681;SDS011;45548;39.530;-9.118;2022-09-09T14:51:11;3.30;;;1.40;;
59681;SDS011;45548;39.530;-9.118;2022-09-09T14:53:39;48.97;;;4.32;;
59681;SDS011;45548;39.530;-9.118;2022-09-09T14:56:09;1.90;;;1.08;;
59681;SDS011;45548;39.530;-9.118;2022-09-09T14:58:39;4.32;;;2.25;;
59681;SDS011;45548;39.530;-9.118;2022-09-09T15:01:05;130.18;;;5.97;;
59681;SDS011;45548;39.530;-9.118;2022-09-09T15:03:39;74.43;;;6.68;;
59681;SDS011;45548;39.530;-9.118;2022-09-09T15:06:08;11.75;;;1.58;;
59681;SDS011;45548;39.530;-9.118;2022-09-09T15:08:40;2.17;;;1.10;;
59681;SDS011;45548;39.530;-9.118;2022-09-09T15:11:07;1.67;;;0.80;;
59681;SDS011;45548;39.530;-9.118;2022-09-09T15:13:34;56.53;;;3.15;;
59681;SDS011;45548;39.530;-9.118;2022-09-09T15:18:41;20.75;;;2.65;;
59681;SDS011;45548;39.530;-9.118;2022-09-09T15:21:11;16.70;;;1.60;;
59681;SDS011;45548;39.530;-9.118;2022-09-09T15:23:38;67.40;;;5.53;;
59681;SDS011;45548;39.530;-9.118;2022-09-09T15:26:05;75.88;;;4.22;;
59681;SDS011;45548;39.530;-9.118;2022-09-09T15:28:31;24.75;;;2.78;;
59681;SDS011;45548;39.530;-9.118;2022-09-09T15:31:12;168.70;;;9.05;;
59681;SDS011;45548;39.530;-9.118;2022-09-09T15:33:39;11.18;;;2.75;;
59681;SDS011;45548;39.530;-9.118;2022-09-09T15:36:12;22.95;;;2.80;;
59681;SDS011;45548;39.530;-9.118;2022-09-09T15:38:38;1.80;;;0.98;;
59681;SDS011;45548;39.530;-9.118;2022-09-09T15:41:04;2.80;;;0.82;;
59681;SDS011;45548;39.530;-9.118;2022-09-09T15:43:30;15.50;;;1.60;;
59681;SDS011;45548;39.530;-9.118;2022-09-09T15:45:57;4.47;;;1.45;;
59681;SDS011;45548;39.530;-9.118;2022-09-09T15:48:30;6.63;;;1.27;;
59681;SDS011;45548;39.530;-9.118;2022-09-09T15:51:03;10.95;;;1.40;;
59681;SDS011;45548;39.530;-9.118;2022-09-09T15:53:29;2.47;;;0.77;;
59681;SDS011;45548;39.530;-9.118;2022-09-09T15:55:57;8.25;;;1.20;;
59681;SDS011;45548;39.530;-9.118;2022-09-09T15:58:23;18.95;;;1.17;;
59681;SDS011;45548;39.530;-9.118;2022-09-09T16:00:49;7.40;;;1.15;;
59681;SDS011;45548;39.530;-9.118;2022-09-09T16:03:15;3.00;;;1.00;;
59681;SDS011;45548;39.530;-9.118;2022-09-09T16:05:40;1.67;;;0.80;;
59681;SDS011;45548;39.530;-9.118;2022-09-09T16:08:06;5.55;;;1.60;;
59681;SDS011;45548;39.530;-9.118;2022-09-09T16:10:31;32.35;;;2.17;;
59681;SDS011;45548;39.530;-9.118;2022-09-09T16:12:57;91.50;;;9.85;;
59681;SDS011;45548;39.530;-9.118;2022-09-09T16:15:23;25.13;;;1.77;;
59681;SDS011;45548;39.530;-9.118;2022-09-09T16:17:52;4.15;;;1.63;;
59681;SDS011;45548;39.530;-9.118;2022-09-09T16:20:18;1.73;;;1.10;;
59681;SDS011;45548;39.530;-9.118;2022-09-09T16:22:45;1.42;;;0.70;;
59681;SDS011;45548;39.530;-9.118;2022-09-09T16:25:11;6.80;;;1.70;;
59681;SDS011;45548;39.530;-9.118;2022-09-09T16:27:36;19.10;;;1.67;;
59681;SDS011;45548;39.530;-9.118;2022-09-09T16:30:02;5.78;;;1.77;;
59681;SDS011;45548;39.530;-9.118;2022-09-09T16:32:28;2.05;;;1.00;;
59681;SDS011;45548;39.530;-9.118;2022-09-09T16:34:53;6.20;;;2.20;;
59681;SDS011;45548;39.530;-9.118;2022-09-09T16:37:19;5.60;;;1.55;;
59681;SDS011;45548;39.530;-9.118;2022-09-09T16:39:45;5.78;;;1.80;;
59681;SDS011;45548;39.530;-9.118;2022-09-09T16:42:11;49.55;;;3.40;;
59681;SDS011;45548;39.530;-9.118;2022-09-09T16:44:36;15.73;;;2.00;;
59681;SDS011;45548;39.530;-9.118;2022-09-09T16:47:02;4.20;;;1.60;;
59681;SDS011;45548;39.530;-9.118;2022-09-09T16:49:29;9.25;;;1.55;;
59681;SDS011;45548;39.530;-9.118;2022-09-09T16:51:56;4.05;;;1.05;;
59681;SDS011;45548;39.530;-9.118;2022-09-09T16:54:23;2.88;;;0.85;;
59681;SDS011;45548;39.530;-9.118;2022-09-09T16:56:50;3.65;;;1.08;;
59681;SDS011;45548;39.530;-9.118;2022-09-09T16:59:17;3.65;;;1.30;;
59681;SDS011;45548;39.530;-9.118;2022-09-09T17:01:44;1999.90;;;321.05;;
59681;SDS011;45548;39.530;-9.118;2022-09-09T17:04:16;1999.90;;;391.63;;
59681;SDS011;45548;39.530;-9.118;2022-09-09T17:06:49;1999.90;;;505.50;;
59681;SDS011;45548;39.530;-9.118;2022-09-09T17:09:16;1999.90;;;570.53;;
59681;SDS011;45548;39.530;-9.118;2022-09-09T17:11:42;1999.90;;;461.73;;
59681;SDS011;45548;39.530;-9.118;2022-09-09T17:14:10;1999.90;;;413.88;;
59681;SDS011;45548;39.530;-9.118;2022-09-09T17:16:38;1999.90;;;448.52;;
59681;SDS011;45548;39.530;-9.118;2022-09-09T17:19:05;1999.90;;;504.73;;
59681;SDS011;45548;39.530;-9.118;2022-09-09T17:21:32;1999.90;;;623.40;;
59681;SDS011;45548;39.530;-9.118;2022-09-09T17:23:58;1999.90;;;370.42;;
59681;SDS011;45548;39.530;-9.118;2022-09-09T17:26:26;1999.90;;;484.05;;
59681;SDS011;45548;39.530;-9.118;2022-09-09T17:28:54;1999.90;;;421.95;;
59681;SDS011;45548;39.530;-9.118;2022-09-09T17:31:21;1999.90;;;313.13;;
59681;SDS011;45548;39.530;-9.118;2022-09-09T17:33:48;1999.90;;;531.63;;
59681;SDS011;45548;39.530;-9.118;2022-09-09T17:36:16;1999.90;;;603.75;;
59681;SDS011;45548;39.530;-9.118;2022-09-09T17:38:47;1999.90;;;541.20;;
59681;SDS011;45548;39.530;-9.118;2022-09-09T17:41:17;1999.90;;;443.27;;
59681;SDS011;45548;39.530;-9.118;2022-09-09T17:43:48;1999.90;;;551.30;;
59681;SDS011;45548;39.530;-9.118;2022-09-09T17:46:16;1999.90;;;602.50;;
59681;SDS011;45548;39.530;-9.118;2022-09-09T17:48:46;1999.90;;;542.63;;
59681;SDS011;45548;39.530;-9.118;2022-09-09T17:51:15;1999.90;;;614.53;;
59681;SDS011;45548;39.530;-9.118;2022-09-09T17:53:44;1999.90;;;613.28;;
59681;SDS011;45548;39.530;-9.118;2022-09-09T17:56:13;1999.90;;;551.78;;
59681;SDS011;45548;39.530;-9.118;2022-09-09T17:58:40;1999.90;;;497.63;;
59681;SDS011;45548;39.530;-9.118;2022-09-09T18:01:06;1999.90;;;475.52;;
59681;SDS011;45548;39.530;-9.118;2022-09-09T18:03:35;1999.90;;;392.88;;
59681;SDS011;45548;39.530;-9.118;2022-09-09T18:06:05;1999.90;;;580.20;;
59681;SDS011;45548;39.530;-9.118;2022-09-09T18:08:33;1999.90;;;456.30;;
59681;SDS011;45548;39.530;-9.118;2022-09-09T18:11:00;1999.90;;;568.88;;
59681;SDS011;45548;39.530;-9.118;2022-09-09T18:13:29;1999.90;;;340.65;;
59681;SDS011;45548;39.530;-9.118;2022-09-09T18:15:55;1999.90;;;523.60;;
59681;SDS011;45548;39.530;-9.118;2022-09-09T18:18:21;1999.90;;;628.45;;
59681;SDS011;45548;39.530;-9.118;2022-09-09T18:21:00;1999.90;;;417.35;;
59681;SDS011;45548;39.530;-9.118;2022-09-09T18:23:27;1999.90;;;402.92;;
59681;SDS011;45548;39.530;-9.118;2022-09-09T18:25:55;1999.90;;;380.25;;
59681;SDS011;45548;39.530;-9.118;2022-09-09T18:28:23;1999.90;;;493.90;;
59681;SDS011;45548;39.530;-9.118;2022-09-09T18:30:49;1592.03;;;344.23;;
59681;SDS011;45548;39.530;-9.118;2022-09-09T18:33:15;1999.90;;;488.02;;
59681;SDS011;45548;39.530;-9.118;2022-09-09T18:35:40;1999.90;;;469.05;;
59681;SDS011;45548;39.530;-9.118;2022-09-09T18:38:06;1999.90;;;687.05;;
59681;SDS011;45548;39.530;-9.118;2022-09-09T18:40:31;1999.90;;;661.72;;
59681;SDS011;45548;39.530;-9.118;2022-09-09T18:42:57;1999.90;;;471.88;;
59681;SDS011;45548;39.530;-9.118;2022-09-09T18:45:23;1999.90;;;373.23;;
59681;SDS011;45548;39.530;-9.118;2022-09-09T18:47:48;1999.90;;;323.48;;
59681;SDS011;45548;39.530;-9.118;2022-09-09T18:50:14;1797.78;;;342.27;;
59681;SDS011;45548;39.530;-9.118;2022-09-09T18:52:40;1999.90;;;504.33;;
59681;SDS011;45548;39.530;-9.118;2022-09-09T18:55:07;1999.90;;;350.63;;
59681;SDS011;45548;39.530;-9.118;2022-09-09T18:57:33;1999.90;;;316.27;;
59681;SDS011;45548;39.530;-9.118;2022-09-09T18:59:59;1999.90;;;377.48;;
59681;SDS011;45548;39.530;-9.118;2022-09-09T19:02:25;1939.95;;;288.60;;
59681;SDS011;45548;39.530;-9.118;2022-09-09T19:04:51;1999.90;;;430.85;;
59681;SDS011;45548;39.530;-9.118;2022-09-09T19:07:17;1999.90;;;690.70;;
59681;SDS011;45548;39.530;-9.118;2022-09-09T19:09:43;1999.90;;;535.53;;
59681;SDS011;45548;39.530;-9.118;2022-09-09T19:12:09;1999.90;;;359.65;;
59681;SDS011;45548;39.530;-9.118;2022-09-09T19:14:35;1999.90;;;446.00;;
59681;SDS011;45548;39.530;-9.118;2022-09-09T19:17:01;1797.97;;;271.63;;
59681;SDS011;45548;39.530;-9.118;2022-09-09T19:19:29;1374.38;;;228.00;;
59681;SDS011;45548;39.530;-9.118;2022-09-09T19:21:56;1999.90;;;270.75;;
59681;SDS011;45548;39.530;-9.118;2022-09-09T19:24:23;1999.90;;;452.75;;
59681;SDS011;45548;39.530;-9.118;2022-09-09T19:26:52;1999.90;;;505.70;;
59681;SDS011;45548;39.530;-9.118;2022-09-09T19:29:23;1999.90;;;396.42;;
59681;SDS011;45548;39.530;-9.118;2022-09-09T19:31:51;1999.90;;;435.30;;
59681;SDS011;45548;39.530;-9.118;2022-09-09T19:34:19;1999.90;;;333.58;;
59681;SDS011;45548;39.530;-9.118;2022-09-09T19:36:45;1999.90;;;420.23;;
59681;SDS011;45548;39.530;-9.118;2022-09-09T19:39:14;1999.90;;;438.85;;
59681;SDS011;45548;39.530;-9.118;2022-09-09T19:41:40;1999.90;;;342.17;;
59681;SDS011;45548;39.530;-9.118;2022-09-09T19:44:07;1999.90;;;345.15;;
59681;SDS011;45548;39.530;-9.118;2022-09-09T19:46:37;1999.90;;;544.47;;
59681;SDS011;45548;39.530;-9.118;2022-09-09T19:49:04;1999.90;;;434.33;;
59681;SDS011;45548;39.530;-9.118;2022-09-09T19:51:32;1999.90;;;371.42;;
59681;SDS011;45548;39.530;-9.118;2022-09-09T19:54:03;1999.90;;;408.67;;
59681;SDS011;45548;39.530;-9.118;2022-09-09T19:56:32;1999.90;;;418.25;;
59681;SDS011;45548;39.530;-9.118;2022-09-09T19:58:59;1999.90;;;403.92;;
59681;SDS011;45548;39.530;-9.118;2022-09-09T20:01:27;1999.90;;;338.85;;
59681;SDS011;45548;39.530;-9.118;2022-09-09T20:04:01;1999.90;;;576.40;;
59681;SDS011;45548;39.530;-9.118;2022-09-09T20:06:29;1999.90;;;293.17;;
59681;SDS011;45548;39.530;-9.118;2022-09-09T20:08:57;1999.90;;;247.57;;
59681;SDS011;45548;39.530;-9.118;2022-09-09T20:11:24;1906.88;;;275.73;;
59681;SDS011;45548;39.530;-9.118;2022-09-09T20:13:51;1999.90;;;424.02;;
59681;SDS011;45548;39.530;-9.118;2022-09-09T20:18:45;1740.57;;;305.55;;
59681;SDS011;45548;39.530;-9.118;2022-09-09T20:21:15;1978.70;;;297.38;;
59681;SDS011;45548;39.530;-9.118;2022-09-09T20:23:45;1999.90;;;311.90;;
59681;SDS011;45548;39.530;-9.118;2022-09-09T20:26:13;1999.90;;;336.08;;
59681;SDS011;45548;39.530;-9.118;2022-09-09T20:28:41;1999.90;;;348.23;;
59681;SDS011;45548;39.530;-9.118;2022-09-09T20:31:12;1870.18;;;235.63;;
59681;SDS011;45548;39.530;-9.118;2022-09-09T20:33:40;1999.90;;;542.78;;
59681;SDS011;45548;39.530;-9.118;2022-09-09T20:36:14;1999.90;;;425.88;;
59681;SDS011;45548;39.530;-9.118;2022-09-09T20:38:48;1483.93;;;372.38;;
59681;SDS011;45548;39.530;-9.118;2022-09-09T20:41:17;1999.90;;;312.83;;
59681;SDS011;45548;39.530;-9.118;2022-09-09T20:43:49;1999.90;;;410.27;;
59681;SDS011;45548;39.530;-9.118;2022-09-09T20:46:16;1999.90;;;373.83;;
59681;SDS011;45548;39.530;-9.118;2022-09-09T20:48:44;1999.90;;;426.63;;
59681;SDS011;45548;39.530;-9.118;2022-09-09T20:51:10;1999.90;;;230.85;;
59681;SDS011;45548;39.530;-9.118;2022-09-09T20:53:37;1999.90;;;394.92;;
59681;SDS011;45548;39.530;-9.118;2022-09-09T20:56:03;1835.88;;;329.00;;
59681;SDS011;45548;39.530;-9.118;2022-09-09T20:58:29;1999.90;;;332.30;;
59681;SDS011;45548;39.530;-9.118;2022-09-09T21:00:56;1999.90;;;324.75;;
59681;SDS011;45548;39.530;-9.118;2022-09-09T21:03:34;1999.90;;;495.00;;
59681;SDS011;45548;39.530;-9.118;2022-09-09T21:06:03;1999.90;;;338.92;;
59681;SDS011;45548;39.530;-9.118;2022-09-09T21:08:31;1999.90;;;331.23;;
59681;SDS011;45548;39.530;-9.118;2022-09-09T21:10:57;1999.90;;;367.98;;
59681;SDS011;45548;39.530;-9.118;2022-09-09T21:13:23;1999.90;;;407.58;;
59681;SDS011;45548;39.530;-9.118;2022-09-09T21:15:49;1759.65;;;197.32;;
59681;SDS011;45548;39.530;-9.118;2022-09-09T21:18:16;1999.90;;;400.30;;
59681;SDS011;45548;39.530;-9.118;2022-09-09T21:20:42;1999.90;;;377.88;;
59681;SDS011;45548;39.530;-9.118;2022-09-09T21:23:09;1999.90;;;352.15;;
59681;SDS011;45548;39.530;-9.118;2022-09-09T21:25:36;1999.90;;;375.23;;
59681;SDS011;45548;39.530;-9.118;2022-09-09T21:28:02;1999.90;;;344.08;;
59681;SDS011;45548;39.530;-9.118;2022-09-09T21:30:29;1999.90;;;377.60;;
59681;SDS011;45548;39.530;-9.118;2022-09-09T21:32:58;1999.90;;;440.02;;
59681;SDS011;45548;39.530;-9.118;2022-09-09T21:35:25;1999.90;;;456.67;;
59681;SDS011;45548;39.530;-9.118;2022-09-09T21:37:52;1999.90;;;356.17;;
59681;SDS011;45548;39.530;-9.118;2022-09-09T21:40:17;1999.90;;;301.23;;
